Meloi — 3FOD — position and weather

sailwx.info

Track history (hours):
 
Tides and Currents Weather Stations Pressure Air Temp Water Temp Dewpoint Dewpoint Depression Visibility Wind Speed Wind Dir Waves Ship Positions

Meloi

Last reported at 2017-Mar-12 15:33 UTC. Time now 2017-Mar-23 06:24 UTC.
Position N 09°12' W 079°56'.
Warning: this ship's position is 10 days out of date.

Length 172 m; draft 10.3 m.

Type: Ship. MMSI: 351132000.

Date/timePositionNaut miles runAvg speedWind from/ knotsBaromVisibWave heightAir tempDewpointWater temp
2017-Mar-12 15:33N 09°12' W 079°56'0 0.1
2017-Mar-12 14:05N 09°13' W 079°56'2 2.5
2017-Mar-12 13:28N 09°14' W 079°55'2 2.6
2017-Mar-12 12:33N 09°16' W 079°55'1 0.8
2017-Mar-12 11:33N 09°17' W 079°55'5 4.7
2017-Mar-12 10:33N 09°22' W 079°55'4 3.9
2017-Mar-12 09:33N 09°26' W 079°56'1 0.9
2017-Mar-12 08:32N 09°26' W 079°56'0 0.0
2017-Mar-12 07:32N 09°26' W 079°56'0 0.0
2017-Mar-12 06:32N 09°26' W 079°56'0 0.0
2017-Mar-12 05:32N 09°26' W 079°56'0 0.0
2017-Mar-12 04:32N 09°26' W 079°56'0 0.0
2017-Mar-12 03:32N 09°26' W 079°56'0 0.0
2017-Mar-12 02:32N 09°26' W 079°56'0 0.0
2017-Mar-12 01:32N 09°26' W 079°56'0 0.0
2017-Mar-12 00:29N 09°26' W 079°56'0 0.0
2017-Mar-11 23:29N 09°26' W 079°56'0 0.0
2017-Mar-11 22:33N 09°26' W 079°56'0 0.0
2017-Mar-11 21:33N 09°26' W 079°56'0 0.0
2017-Mar-11 20:33N 09°26' W 079°56'5 5.1
2017-Mar-11 19:33N 09°31' W 079°54'  
Track history (hours):
 
Tides and Currents Weather Stations Pressure Air Temp Water Temp Dewpoint Dewpoint Depression Visibility Wind Speed Wind Dir Waves Ship Positions

Meloi

Last reported at 2017-Mar-12 15:33 UTC. Time now 2017-Mar-23 06:24 UTC.
Position N 09°12' W 079°56'.
Warning: this ship's position is 10 days out of date.

Length 172 m; draft 10.3 m.

Type: Ship. MMSI: 351132000.

Date/timePositionNaut miles runAvg speedWind from/ knotsBaromVisibWave heightAir tempDewpointWater temp
2017-Mar-12 15:33N 09°12' W 079°56'0 0.1
2017-Mar-12 14:05N 09°13' W 079°56'2 2.5
2017-Mar-12 13:28N 09°14' W 079°55'2 2.6
2017-Mar-12 12:33N 09°16' W 079°55'1 0.8
2017-Mar-12 11:33N 09°17' W 079°55'5 4.7
2017-Mar-12 10:33N 09°22' W 079°55'4 3.9
2017-Mar-12 09:33N 09°26' W 079°56'1 0.9
2017-Mar-12 08:32N 09°26' W 079°56'0 0.0
2017-Mar-12 07:32N 09°26' W 079°56'0 0.0
2017-Mar-12 06:32N 09°26' W 079°56'0 0.0
2017-Mar-12 05:32N 09°26' W 079°56'0 0.0
2017-Mar-12 04:32N 09°26' W 079°56'0 0.0
2017-Mar-12 03:32N 09°26' W 079°56'0 0.0
2017-Mar-12 02:32N 09°26' W 079°56'0 0.0
2017-Mar-12 01:32N 09°26' W 079°56'0 0.0
2017-Mar-12 00:29N 09°26' W 079°56'0 0.0
2017-Mar-11 23:29N 09°26' W 079°56'0 0.0
2017-Mar-11 22:33N 09°26' W 079°56'0 0.0
2017-Mar-11 21:33N 09°26' W 079°56'0 0.0
2017-Mar-11 20:33N 09°26' W 079°56'5 5.1
2017-Mar-11 19:33N 09°31' W 079°54'  

Dump ship's entire track history